sensor_id;sensor_type;location;lat;lon;timestamp;pressure;altitude;pressure_sealevel;temperature;humidity
6134;BME280;3098;42.678;23.364;2023-01-26T00:01:18;95384.19;;;-0.65;100.00
6134;BME280;3098;42.678;23.364;2023-01-26T00:03:46;95401.94;;;-0.74;100.00
6134;BME280;3098;42.678;23.364;2023-01-26T00:06:15;95399.47;;;-0.80;100.00
6134;BME280;3098;42.678;23.364;2023-01-26T00:08:44;95422.22;;;-0.76;100.00
6134;BME280;3098;42.678;23.364;2023-01-26T00:11:13;95408.28;;;-0.81;100.00
6134;BME280;3098;42.678;23.364;2023-01-26T00:13:43;95379.88;;;-0.94;100.00
6134;BME280;3098;42.678;23.364;2023-01-26T00:16:12;95395.38;;;-0.76;100.00
6134;BME280;3098;42.678;23.364;2023-01-26T00:18:40;95329.63;;;-1.36;100.00
6134;BME280;3098;42.678;23.364;2023-01-26T00:21:12;95194.97;;;-2.28;100.00
6134;BME280;3098;42.678;23.364;2023-01-26T00:23:41;95414.41;;;-0.76;100.00
6134;BME280;3098;42.678;23.364;2023-01-26T00:26:12;95408.09;;;-0.80;100.00
6134;BME280;3098;42.678;23.364;2023-01-26T00:28:42;95420.31;;;-0.80;100.00
6134;BME280;3098;42.678;23.364;2023-01-26T00:31:12;95398.22;;;-0.78;100.00
6134;BME280;3098;42.678;23.364;2023-01-26T00:33:40;95383.63;;;-0.79;100.00
6134;BME280;3098;42.678;23.364;2023-01-26T00:36:09;95285.88;;;-1.39;100.00
6134;BME280;3098;42.678;23.364;2023-01-26T00:38:37;95372.41;;;-0.79;100.00
6134;BME280;3098;42.678;23.364;2023-01-26T00:41:04;95375.25;;;-0.81;100.00
6134;BME280;3098;42.678;23.364;2023-01-26T00:43:32;95377.72;;;-0.86;100.00
6134;BME280;3098;42.678;23.364;2023-01-26T00:46:01;95313.16;;;-1.19;100.00
6134;BME280;3098;42.678;23.364;2023-01-26T00:48:28;95371.94;;;-0.88;100.00
6134;BME280;3098;42.678;23.364;2023-01-26T00:50:55;95340.56;;;-1.04;100.00
6134;BME280;3098;42.678;23.364;2023-01-26T00:53:22;95367.44;;;-0.81;100.00
6134;BME280;3098;42.678;23.364;2023-01-26T00:55:50;95363.22;;;-0.82;100.00
6134;BME280;3098;42.678;23.364;2023-01-26T00:58:20;95361.88;;;-0.84;100.00
6134;BME280;3098;42.678;23.364;2023-01-26T01:00:47;95326.28;;;-1.02;100.00
6134;BME280;3098;42.678;23.364;2023-01-26T01:03:16;95333.81;;;-0.94;100.00
6134;BME280;3098;42.678;23.364;2023-01-26T01:05:43;95331.75;;;-0.92;100.00
6134;BME280;3098;42.678;23.364;2023-01-26T01:08:14;95233.47;;;-1.54;100.00
6134;BME280;3098;42.678;23.364;2023-01-26T01:10:42;95340.22;;;-0.85;100.00
6134;BME280;3098;42.678;23.364;2023-01-26T01:13:09;95340.59;;;-0.81;100.00
6134;BME280;3098;42.678;23.364;2023-01-26T01:15:37;95352.94;;;-0.88;100.00
6134;BME280;3098;42.678;23.364;2023-01-26T01:18:05;95362.31;;;-0.87;100.00
6134;BME280;3098;42.678;23.364;2023-01-26T01:20:34;95255.56;;;-1.45;100.00
6134;BME280;3098;42.678;23.364;2023-01-26T01:23:01;95250.34;;;-1.45;100.00
6134;BME280;3098;42.678;23.364;2023-01-26T01:25:28;95315.13;;;-1.02;100.00
6134;BME280;3098;42.678;23.364;2023-01-26T01:27:55;95340.59;;;-0.81;100.00
6134;BME280;3098;42.678;23.364;2023-01-26T01:30:22;95336.06;;;-0.86;100.00
6134;BME280;3098;42.678;23.364;2023-01-26T01:32:49;95345.00;;;-0.82;100.00
6134;BME280;3098;42.678;23.364;2023-01-26T01:35:20;95281.25;;;-1.26;100.00
6134;BME280;3098;42.678;23.364;2023-01-26T01:37:50;95306.97;;;-1.06;100.00
6134;BME280;3098;42.678;23.364;2023-01-26T01:40:18;95336.38;;;-0.82;100.00
6134;BME280;3098;42.678;23.364;2023-01-26T01:42:49;95237.09;;;-1.44;100.00
6134;BME280;3098;42.678;23.364;2023-01-26T01:45:43;95168.06;;;-1.93;100.00
6134;BME280;3098;42.678;23.364;2023-01-26T01:48:27;95342.28;;;-0.87;100.00
6134;BME280;3098;42.678;23.364;2023-01-26T01:51:05;95328.13;;;-0.91;100.00
6134;BME280;3098;42.678;23.364;2023-01-26T01:53:40;95338.53;;;-0.91;100.00
6134;BME280;3098;42.678;23.364;2023-01-26T01:56:25;95283.72;;;-1.19;100.00
6134;BME280;3098;42.678;23.364;2023-01-26T01:59:00;95313.06;;;-1.12;100.00
6134;BME280;3098;42.678;23.364;2023-01-26T02:01:30;95343.41;;;-0.94;100.00
6134;BME280;3098;42.678;23.364;2023-01-26T02:04:00;95320.97;;;-1.07;100.00
6134;BME280;3098;42.678;23.364;2023-01-26T02:06:32;95295.38;;;-1.22;100.00
6134;BME280;3098;42.678;23.364;2023-01-26T02:09:02;95327.44;;;-0.98;100.00
6134;BME280;3098;42.678;23.364;2023-01-26T02:11:33;95327.69;;;-0.99;100.00
6134;BME280;3098;42.678;23.364;2023-01-26T02:14:06;95229.06;;;-1.54;100.00
6134;BME280;3098;42.678;23.364;2023-01-26T02:16:36;95287.47;;;-1.15;100.00
6134;BME280;3098;42.678;23.364;2023-01-26T02:19:23;95318.16;;;-1.05;100.00
6134;BME280;3098;42.678;23.364;2023-01-26T02:21:55;95300.25;;;-1.02;100.00
6134;BME280;3098;42.678;23.364;2023-01-26T02:24:36;95288.63;;;-0.99;100.00
6134;BME280;3098;42.678;23.364;2023-01-26T02:27:09;95286.25;;;-1.01;100.00
6134;BME280;3098;42.678;23.364;2023-01-26T02:29:41;95284.00;;;-0.97;100.00
6134;BME280;3098;42.678;23.364;2023-01-26T02:32:09;95276.72;;;-0.95;100.00
6134;BME280;3098;42.678;23.364;2023-01-26T02:34:43;95239.38;;;-1.12;100.00
6134;BME280;3098;42.678;23.364;2023-01-26T02:37:14;95248.91;;;-1.06;100.00
6134;BME280;3098;42.678;23.364;2023-01-26T02:39:46;95277.28;;;-0.93;100.00
6134;BME280;3098;42.678;23.364;2023-01-26T02:42:24;95266.09;;;-0.94;100.00
6134;BME280;3098;42.678;23.364;2023-01-26T02:45:11;95271.41;;;-1.00;100.00
6134;BME280;3098;42.678;23.364;2023-01-26T02:47:43;95230.56;;;-1.35;100.00
6134;BME280;3098;42.678;23.364;2023-01-26T02:50:16;95265.19;;;-1.11;100.00
6134;BME280;3098;42.678;23.364;2023-01-26T02:52:44;95221.28;;;-1.31;100.00
6134;BME280;3098;42.678;23.364;2023-01-26T02:55:20;95259.66;;;-1.14;100.00
6134;BME280;3098;42.678;23.364;2023-01-26T02:57:52;95131.22;;;-1.90;100.00
6134;BME280;3098;42.678;23.364;2023-01-26T03:00:26;95254.44;;;-1.14;100.00
6134;BME280;3098;42.678;23.364;2023-01-26T03:03:05;95227.25;;;-1.30;100.00
6134;BME280;3098;42.678;23.364;2023-01-26T03:05:39;95254.53;;;-1.21;100.00
6134;BME280;3098;42.678;23.364;2023-01-26T03:08:07;95244.94;;;-1.21;100.00
6134;BME280;3098;42.678;23.364;2023-01-26T03:10:41;95235.06;;;-1.19;100.00
6134;BME280;3098;42.678;23.364;2023-01-26T03:13:15;95248.34;;;-1.20;100.00
6134;BME280;3098;42.678;23.364;2023-01-26T03:15:46;95233.28;;;-1.18;100.00
6134;BME280;3098;42.678;23.364;2023-01-26T03:18:23;95233.28;;;-1.18;100.00
6134;BME280;3098;42.678;23.364;2023-01-26T03:21:14;95092.34;;;-1.96;100.00
6134;BME280;3098;42.678;23.364;2023-01-26T03:23:59;95219.47;;;-1.19;100.00
6134;BME280;3098;42.678;23.364;2023-01-26T03:26:43;95174.56;;;-1.49;100.00
6134;BME280;3098;42.678;23.364;2023-01-26T03:29:30;95143.59;;;-1.62;100.00
6134;BME280;3098;42.678;23.364;2023-01-26T03:31:57;95209.28;;;-1.20;100.00
6134;BME280;3098;42.678;23.364;2023-01-26T03:34:25;95218.91;;;-1.21;100.00
6134;BME280;3098;42.678;23.364;2023-01-26T03:36:54;95196.03;;;-1.42;100.00
6134;BME280;3098;42.678;23.364;2023-01-26T03:39:21;95200.94;;;-1.22;100.00
6134;BME280;3098;42.678;23.364;2023-01-26T03:42:06;95204.53;;;-1.23;100.00
6134;BME280;3098;42.678;23.364;2023-01-26T03:44:51;95180.44;;;-1.30;100.00
6134;BME280;3098;42.678;23.364;2023-01-26T03:47:37;95167.66;;;-1.43;100.00
6134;BME280;3098;42.678;23.364;2023-01-26T03:50:21;95196.28;;;-1.20;100.00
6134;BME280;3098;42.678;23.364;2023-01-26T03:53:13;95194.69;;;-1.21;100.00
6134;BME280;3098;42.678;23.364;2023-01-26T03:55:58;95201.13;;;-1.24;100.00
6134;BME280;3098;42.678;23.364;2023-01-26T03:58:47;95195.03;;;-1.29;100.00
6134;BME280;3098;42.678;23.364;2023-01-26T04:01:17;95073.38;;;-1.97;100.00
6134;BME280;3098;42.678;23.364;2023-01-26T04:03:46;95153.97;;;-1.39;100.00
6134;BME280;3098;42.678;23.364;2023-01-26T04:06:31;95179.63;;;-1.19;100.00
6134;BME280;3098;42.678;23.364;2023-01-26T04:09:17;95132.84;;;-1.42;100.00
6134;BME280;3098;42.678;23.364;2023-01-26T04:11:45;95168.56;;;-1.38;100.00
6134;BME280;3098;42.678;23.364;2023-01-26T04:14:13;95042.72;;;-2.06;100.00
6134;BME280;3098;42.678;23.364;2023-01-26T04:17:03;95153.66;;;-1.31;100.00
6134;BME280;3098;42.678;23.364;2023-01-26T04:19:48;95110.31;;;-1.48;100.00
6134;BME280;3098;42.678;23.364;2023-01-26T04:22:35;95111.13;;;-1.48;100.00
6134;BME280;3098;42.678;23.364;2023-01-26T04:25:06;95173.66;;;-1.20;100.00
6134;BME280;3098;42.678;23.364;2023-01-26T04:27:34;95150.00;;;-1.18;100.00
6134;BME280;3098;42.678;23.364;2023-01-26T04:30:01;95140.13;;;-1.16;100.00
6134;BME280;3098;42.678;23.364;2023-01-26T04:32:30;95115.84;;;-1.33;100.00
6134;BME280;3098;42.678;23.364;2023-01-26T04:34:57;95148.28;;;-1.12;100.00
6134;BME280;3098;42.678;23.364;2023-01-26T04:37:24;95056.53;;;-1.71;100.00
6134;BME280;3098;42.678;23.364;2023-01-26T04:39:52;95036.38;;;-1.76;100.00
6134;BME280;3098;42.678;23.364;2023-01-26T04:42:18;95143.97;;;-1.07;100.00
6134;BME280;3098;42.678;23.364;2023-01-26T04:44:50;95135.63;;;-1.09;100.00
6134;BME280;3098;42.678;23.364;2023-01-26T04:47:18;95073.38;;;-1.62;100.00
6134;BME280;3098;42.678;23.364;2023-01-26T04:49:46;95021.50;;;-1.92;100.00
6134;BME280;3098;42.678;23.364;2023-01-26T04:52:14;95090.97;;;-1.41;100.00
6134;BME280;3098;42.678;23.364;2023-01-26T04:54:41;95143.44;;;-1.09;100.00
6134;BME280;3098;42.678;23.364;2023-01-26T04:57:08;95070.88;;;-1.68;100.00
6134;BME280;3098;42.678;23.364;2023-01-26T04:59:36;95146.69;;;-1.13;100.00
6134;BME280;3098;42.678;23.364;2023-01-26T05:02:04;95123.78;;;-1.28;100.00
6134;BME280;3098;42.678;23.364;2023-01-26T05:04:32;95055.28;;;-1.68;100.00
6134;BME280;3098;42.678;23.364;2023-01-26T05:07:03;95098.31;;;-1.38;100.00
6134;BME280;3098;42.678;23.364;2023-01-26T05:09:30;95153.38;;;-1.06;100.00
6134;BME280;3098;42.678;23.364;2023-01-26T05:11:57;95099.56;;;-1.40;100.00
6134;BME280;3098;42.678;23.364;2023-01-26T05:14:45;95138.31;;;-1.04;100.00
6134;BME280;3098;42.678;23.364;2023-01-26T05:17:12;95093.47;;;-1.46;100.00
6134;BME280;3098;42.678;23.364;2023-01-26T05:19:42;95139.09;;;-1.03;100.00
6134;BME280;3098;42.678;23.364;2023-01-26T05:22:13;95148.72;;;-1.04;100.00
6134;BME280;3098;42.678;23.364;2023-01-26T05:24:41;95131.06;;;-1.02;100.00
6134;BME280;3098;42.678;23.364;2023-01-26T05:27:10;95135.72;;;-1.04;100.00
6134;BME280;3098;42.678;23.364;2023-01-26T05:29:54;95130.50;;;-1.04;100.00
6134;BME280;3098;42.678;23.364;2023-01-26T05:32:25;95082.13;;;-1.28;100.00
6134;BME280;3098;42.678;23.364;2023-01-26T05:34:53;95137.75;;;-0.94;100.00
6134;BME280;3098;42.678;23.364;2023-01-26T05:37:23;95107.44;;;-1.12;100.00
6134;BME280;3098;42.678;23.364;2023-01-26T05:39:51;95121.41;;;-0.90;100.00
6134;BME280;3098;42.678;23.364;2023-01-26T05:42:19;95126.16;;;-0.87;100.00
6134;BME280;3098;42.678;23.364;2023-01-26T05:44:46;95024.81;;;-1.45;100.00
6134;BME280;3098;42.678;23.364;2023-01-26T05:47:15;95127.28;;;-0.83;100.00
6134;BME280;3098;42.678;23.364;2023-01-26T05:49:43;95099.59;;;-1.00;100.00
6134;BME280;3098;42.678;23.364;2023-01-26T05:52:13;95125.25;;;-0.81;100.00
6134;BME280;3098;42.678;23.364;2023-01-26T05:54:42;95056.31;;;-1.18;100.00
6134;BME280;3098;42.678;23.364;2023-01-26T05:57:10;95018.84;;;-1.45;100.00
6134;BME280;3098;42.678;23.364;2023-01-26T05:59:38;95100.03;;;-0.92;100.00
6134;BME280;3098;42.678;23.364;2023-01-26T06:02:12;95064.34;;;-1.20;100.00
6134;BME280;3098;42.678;23.364;2023-01-26T06:04:40;95127.00;;;-0.70;100.00
6134;BME280;3098;42.678;23.364;2023-01-26T06:07:10;95122.25;;;-0.73;100.00
6134;BME280;3098;42.678;23.364;2023-01-26T06:09:38;95119.19;;;-0.70;100.00
6134;BME280;3098;42.678;23.364;2023-01-26T06:12:12;94936.97;;;-1.94;100.00
6134;BME280;3098;42.678;23.364;2023-01-26T06:14:40;95108.28;;;-0.83;100.00
6134;BME280;3098;42.678;23.364;2023-01-26T06:17:07;95122.50;;;-0.74;100.00
6134;BME280;3098;42.678;23.364;2023-01-26T06:19:36;95118.19;;;-0.69;100.00
6134;BME280;3098;42.678;23.364;2023-01-26T06:22:06;94953.78;;;-1.73;100.00
6134;BME280;3098;42.678;23.364;2023-01-26T06:24:34;95114.78;;;-0.69;100.00
6134;BME280;3098;42.678;23.364;2023-01-26T06:27:01;95115.59;;;-0.69;100.00
6134;BME280;3098;42.678;23.364;2023-01-26T06:29:32;95122.59;;;-0.69;100.00
6134;BME280;3098;42.678;23.364;2023-01-26T06:32:00;94927.38;;;-1.94;100.00
6134;BME280;3098;42.678;23.364;2023-01-26T06:34:27;95108.78;;;-0.70;100.00
6134;BME280;3098;42.678;23.364;2023-01-26T06:36:55;95061.16;;;-0.82;100.00
6134;BME280;3098;42.678;23.364;2023-01-26T06:39:25;95053.38;;;-0.93;100.00
6134;BME280;3098;42.678;23.364;2023-01-26T06:41:52;94967.34;;;-1.43;100.00
6134;BME280;3098;42.678;23.364;2023-01-26T06:44:19;95106.13;;;-0.58;100.00
6134;BME280;3098;42.678;23.364;2023-01-26T06:46:49;94991.28;;;-1.30;100.00
6134;BME280;3098;42.678;23.364;2023-01-26T06:49:17;95120.28;;;-0.54;100.00
6134;BME280;3098;42.678;23.364;2023-01-26T06:51:51;95117.97;;;-0.50;100.00
6134;BME280;3098;42.678;23.364;2023-01-26T06:54:22;95105.59;;;-0.60;100.00
6134;BME280;3098;42.678;23.364;2023-01-26T06:56:49;95110.16;;;-0.50;100.00
6134;BME280;3098;42.678;23.364;2023-01-26T06:59:17;95119.03;;;-0.51;100.00
6134;BME280;3098;42.678;23.364;2023-01-26T07:01:45;95070.19;;;-0.73;100.00
6134;BME280;3098;42.678;23.364;2023-01-26T07:04:17;95100.75;;;-0.40;100.00
6134;BME280;3098;42.678;23.364;2023-01-26T07:06:45;95056.69;;;-0.70;100.00
6134;BME280;3098;42.678;23.364;2023-01-26T07:09:13;95065.47;;;-0.59;100.00
6134;BME280;3098;42.678;23.364;2023-01-26T07:11:42;95093.13;;;-0.41;100.00
6134;BME280;3098;42.678;23.364;2023-01-26T07:14:11;95098.81;;;-0.44;100.00
6134;BME280;3098;42.678;23.364;2023-01-26T07:16:38;94985.66;;;-1.10;100.00
6134;BME280;3098;42.678;23.364;2023-01-26T07:19:06;95067.03;;;-0.75;100.00
6134;BME280;3098;42.678;23.364;2023-01-26T07:21:36;95106.41;;;-0.43;100.00
6134;BME280;3098;42.678;23.364;2023-01-26T07:24:04;95063.56;;;-0.64;100.00
6134;BME280;3098;42.678;23.364;2023-01-26T07:26:32;94854.25;;;-1.97;100.00
6134;BME280;3098;42.678;23.364;2023-01-26T07:28:59;95074.50;;;-0.33;100.00
6134;BME280;3098;42.678;23.364;2023-01-26T07:31:26;95036.50;;;-0.63;100.00
6134;BME280;3098;42.678;23.364;2023-01-26T07:33:53;95070.81;;;-0.37;100.00
6134;BME280;3098;42.678;23.364;2023-01-26T07:36:20;95004.34;;;-0.85;100.00
6134;BME280;3098;42.678;23.364;2023-01-26T07:38:49;95073.25;;;-0.31;100.00
6134;BME280;3098;42.678;23.364;2023-01-26T07:41:16;94903.25;;;-1.49;100.00
6134;BME280;3098;42.678;23.364;2023-01-26T07:43:44;95048.44;;;-0.50;100.00
6134;BME280;3098;42.678;23.364;2023-01-26T07:46:11;95073.91;;;-0.24;100.00
6134;BME280;3098;42.678;23.364;2023-01-26T07:48:38;95078.78;;;-0.27;100.00
6134;BME280;3098;42.678;23.364;2023-01-26T07:51:06;95010.94;;;-0.49;100.00
6134;BME280;3098;42.678;23.364;2023-01-26T07:53:36;95076.75;;;-0.09;100.00
6134;BME280;3098;42.678;23.364;2023-01-26T07:56:07;95065.34;;;-0.03;100.00
6134;BME280;3098;42.678;23.364;2023-01-26T07:58:36;95071.03;;;-0.06;100.00
6134;BME280;3098;42.678;23.364;2023-01-26T08:01:06;95077.69;;;0.02;100.00
6134;BME280;3098;42.678;23.364;2023-01-26T08:03:34;95028.00;;;-0.25;100.00
6134;BME280;3098;42.678;23.364;2023-01-26T08:06:01;94968.16;;;-0.53;100.00
6134;BME280;3098;42.678;23.364;2023-01-26T08:08:29;95062.84;;;0.03;100.00
6134;BME280;3098;42.678;23.364;2023-01-26T08:10:57;95061.72;;;0.15;100.00
6134;BME280;3098;42.678;23.364;2023-01-26T08:13:28;95053.66;;;0.17;100.00
6134;BME280;3098;42.678;23.364;2023-01-26T08:15:59;95053.41;;;0.18;100.00
6134;BME280;3098;42.678;23.364;2023-01-26T08:18:28;95011.41;;;-0.02;100.00
6134;BME280;3098;42.678;23.364;2023-01-26T08:20:56;94969.66;;;-0.24;100.00
6134;BME280;3098;42.678;23.364;2023-01-26T08:23:24;94948.03;;;-0.41;100.00
6134;BME280;3098;42.678;23.364;2023-01-26T08:25:54;95023.50;;;0.04;100.00
6134;BME280;3098;42.678;23.364;2023-01-26T08:28:27;95037.34;;;0.26;100.00
6134;BME280;3098;42.678;23.364;2023-01-26T08:30:55;95050.47;;;0.31;100.00
6134;BME280;3098;42.678;23.364;2023-01-26T08:33:24;94978.31;;;-0.02;100.00
6134;BME280;3098;42.678;23.364;2023-01-26T08:36:00;95050.63;;;0.41;100.00
6134;BME280;3098;42.678;23.364;2023-01-26T08:38:28;95019.66;;;0.12;100.00
6134;BME280;3098;42.678;23.364;2023-01-26T08:40:56;95000.56;;;0.06;100.00
6134;BME280;3098;42.678;23.364;2023-01-26T08:43:24;95000.72;;;0.16;100.00
6134;BME280;3098;42.678;23.364;2023-01-26T08:45:54;95025.22;;;0.53;100.00
6134;BME280;3098;42.678;23.364;2023-01-26T08:48:23;95002.97;;;0.29;100.00
6134;BME280;3098;42.678;23.364;2023-01-26T08:50:53;94916.78;;;-0.19;100.00
6134;BME280;3098;42.678;23.364;2023-01-26T08:53:20;95030.97;;;0.55;100.00
6134;BME280;3098;42.678;23.364;2023-01-26T08:55:48;95050.25;;;0.54;100.00
6134;BME280;3098;42.678;23.364;2023-01-26T08:58:16;94995.03;;;0.19;100.00
6134;BME280;3098;42.678;23.364;2023-01-26T09:00:45;95049.00;;;0.57;100.00
6134;BME280;3098;42.678;23.364;2023-01-26T09:03:13;95036.13;;;0.50;100.00
6134;BME280;3098;42.678;23.364;2023-01-26T09:05:41;94983.41;;;0.10;100.00
6134;BME280;3098;42.678;23.364;2023-01-26T09:08:08;94995.78;;;0.36;100.00
6134;BME280;3098;42.678;23.364;2023-01-26T09:10:36;95026.88;;;0.60;100.00
6134;BME280;3098;42.678;23.364;2023-01-26T09:13:04;95013.72;;;0.54;100.00
6134;BME280;3098;42.678;23.364;2023-01-26T09:15:32;95036.78;;;0.63;100.00
6134;BME280;3098;42.678;23.364;2023-01-26T09:18:00;95011.38;;;0.53;100.00
6134;BME280;3098;42.678;23.364;2023-01-26T09:20:32;94997.38;;;0.21;100.00
6134;BME280;3098;42.678;23.364;2023-01-26T09:23:01;95017.94;;;0.55;100.00
6134;BME280;3098;42.678;23.364;2023-01-26T09:25:30;94950.25;;;0.27;100.00
6134;BME280;3098;42.678;23.364;2023-01-26T09:27:58;95026.19;;;0.69;100.00
6134;BME280;3098;42.678;23.364;2023-01-26T09:30:26;94939.94;;;0.16;100.00
6134;BME280;3098;42.678;23.364;2023-01-26T09:32:57;95006.47;;;0.56;100.00
6134;BME280;3098;42.678;23.364;2023-01-26T09:35:26;94914.28;;;0.08;100.00
6134;BME280;3098;42.678;23.364;2023-01-26T09:37:55;94958.56;;;0.46;100.00
6134;BME280;3098;42.678;23.364;2023-01-26T09:40:32;94848.16;;;-0.25;100.00
6134;BME280;3098;42.678;23.364;2023-01-26T09:43:13;94993.06;;;0.48;100.00
6134;BME280;3098;42.678;23.364;2023-01-26T09:45:55;95012.41;;;0.74;100.00
6134;BME280;3098;42.678;23.364;2023-01-26T09:48:35;95015.69;;;0.64;100.00
6134;BME280;3098;42.678;23.364;2023-01-26T09:51:09;94920.72;;;0.22;100.00
6134;BME280;3098;42.678;23.364;2023-01-26T09:53:44;95001.41;;;0.72;100.00
6134;BME280;3098;42.678;23.364;2023-01-26T09:56:16;94985.25;;;0.75;100.00
6134;BME280;3098;42.678;23.364;2023-01-26T09:58:48;94974.59;;;0.76;100.00
6134;BME280;3098;42.678;23.364;2023-01-26T10:01:23;94981.84;;;0.74;100.00
6134;BME280;3098;42.678;23.364;2023-01-26T10:04:00;94982.81;;;0.90;100.00
6134;BME280;3098;42.678;23.364;2023-01-26T10:06:32;94990.34;;;0.86;100.00
6134;BME280;3098;42.678;23.364;2023-01-26T10:09:11;94996.41;;;0.92;100.00
6134;BME280;3098;42.678;23.364;2023-01-26T10:11:43;94976.66;;;1.01;100.00
6134;BME280;3098;42.678;23.364;2023-01-26T10:14:13;94904.50;;;0.41;100.00
6134;BME280;3098;42.678;23.364;2023-01-26T10:16:44;94912.81;;;0.38;100.00
6134;BME280;3098;42.678;23.364;2023-01-26T10:19:16;94936.84;;;0.62;100.00
6134;BME280;3098;42.678;23.364;2023-01-26T10:21:49;94909.66;;;0.58;100.00
6134;BME280;3098;42.678;23.364;2023-01-26T10:24:21;94924.91;;;0.71;100.00
6134;BME280;3098;42.678;23.364;2023-01-26T10:26:52;94926.66;;;0.87;100.00
6134;BME280;3098;42.678;23.364;2023-01-26T10:29:20;94909.06;;;0.78;100.00
6134;BME280;3098;42.678;23.364;2023-01-26T10:31:47;94924.06;;;0.87;100.00
6134;BME280;3098;42.678;23.364;2023-01-26T10:34:16;94894.25;;;0.83;100.00
6134;BME280;3098;42.678;23.364;2023-01-26T10:36:50;94924.75;;;1.04;100.00
6134;BME280;3098;42.678;23.364;2023-01-26T10:39:22;94846.25;;;0.63;100.00
6134;BME280;3098;42.678;23.364;2023-01-26T10:41:57;94902.25;;;1.03;100.00
6134;BME280;3098;42.678;23.364;2023-01-26T10:44:31;94839.97;;;0.58;100.00
6134;BME280;3098;42.678;23.364;2023-01-26T10:47:13;94725.34;;;-0.07;100.00
6134;BME280;3098;42.678;23.364;2023-01-26T10:49:41;94876.47;;;1.12;100.00
6134;BME280;3098;42.678;23.364;2023-01-26T10:52:35;94865.56;;;1.20;100.00
6134;BME280;3098;42.678;23.364;2023-01-26T10:55:11;94820.09;;;0.84;100.00
6134;BME280;3098;42.678;23.364;2023-01-26T10:57:47;94859.97;;;1.06;100.00
6134;BME280;3098;42.678;23.364;2023-01-26T11:00:23;94819.38;;;0.94;100.00
6134;BME280;3098;42.678;23.364;2023-01-26T11:02:57;94835.34;;;0.97;100.00
6134;BME280;3098;42.678;23.364;2023-01-26T11:05:28;94856.91;;;1.14;100.00
6134;BME280;3098;42.678;23.364;2023-01-26T11:07:57;94619.31;;;-0.28;100.00
6134;BME280;3098;42.678;23.364;2023-01-26T11:10:29;94805.63;;;1.03;100.00
6134;BME280;3098;42.678;23.364;2023-01-26T11:13:11;94587.00;;;-0.32;100.00
6134;BME280;3098;42.678;23.364;2023-01-26T11:15:44;94797.19;;;0.91;100.00
6134;BME280;3098;42.678;23.364;2023-01-26T11:18:21;94830.41;;;1.33;100.00
6134;BME280;3098;42.678;23.364;2023-01-26T11:20:57;94833.81;;;1.33;100.00
6134;BME280;3098;42.678;23.364;2023-01-26T11:23:56;94784.28;;;1.16;100.00
6134;BME280;3098;42.678;23.364;2023-01-26T11:26:46;94805.28;;;1.32;100.00
6134;BME280;3098;42.678;23.364;2023-01-26T11:29:38;94767.03;;;1.10;100.00
6134;BME280;3098;42.678;23.364;2023-01-26T11:32:18;94781.75;;;1.27;100.00
6134;BME280;3098;42.678;23.364;2023-01-26T11:34:58;94769.38;;;1.12;100.00
6134;BME280;3098;42.678;23.364;2023-01-26T11:37:42;94747.88;;;1.00;100.00
6134;BME280;3098;42.678;23.364;2023-01-26T11:40:27;94771.91;;;1.39;100.00
6134;BME280;3098;42.678;23.364;2023-01-26T11:46:16;94738.94;;;1.33;100.00
6134;BME280;3098;42.678;23.364;2023-01-26T11:48:58;94574.53;;;0.49;100.00
6134;BME280;3098;42.678;23.364;2023-01-26T11:51:41;94734.44;;;1.23;100.00
6134;BME280;3098;42.678;23.364;2023-01-26T11:54:31;94760.38;;;1.35;100.00
6134;BME280;3098;42.678;23.364;2023-01-26T11:57:07;94674.38;;;0.76;100.00
6134;BME280;3098;42.678;23.364;2023-01-26T11:59:47;94779.19;;;1.37;100.00
6134;BME280;3098;42.678;23.364;2023-01-26T12:02:27;94599.16;;;0.26;100.00
6134;BME280;3098;42.678;23.364;2023-01-26T12:05:10;94730.81;;;1.24;100.00
6134;BME280;3098;42.678;23.364;2023-01-26T12:07:50;94743.94;;;1.39;100.00
6134;BME280;3098;42.678;23.364;2023-01-26T12:10:32;94670.53;;;0.89;100.00
6134;BME280;3098;42.678;23.364;2023-01-26T12:13:13;94748.13;;;1.45;100.00
6134;BME280;3098;42.678;23.364;2023-01-26T12:15:52;94740.06;;;1.47;100.00
6134;BME280;3098;42.678;23.364;2023-01-26T12:18:25;94682.84;;;0.93;100.00
6134;BME280;3098;42.678;23.364;2023-01-26T12:21:02;94726.63;;;1.28;100.00
6134;BME280;3098;42.678;23.364;2023-01-26T12:23:43;94700.94;;;1.10;100.00
6134;BME280;3098;42.678;23.364;2023-01-26T12:26:16;94589.66;;;0.47;100.00
6134;BME280;3098;42.678;23.364;2023-01-26T12:28:47;94577.91;;;0.44;100.00
6134;BME280;3098;42.678;23.364;2023-01-26T12:31:21;94717.06;;;1.44;100.00
6134;BME280;3098;42.678;23.364;2023-01-26T12:33:53;94719.38;;;1.40;100.00
6134;BME280;3098;42.678;23.364;2023-01-26T12:36:43;94713.09;;;1.36;100.00
6134;BME280;3098;42.678;23.364;2023-01-26T12:39:20;94618.78;;;0.76;100.00
6134;BME280;3098;42.678;23.364;2023-01-26T12:42:00;94691.13;;;1.32;100.00
6134;BME280;3098;42.678;23.364;2023-01-26T12:44:35;94523.31;;;0.38;100.00
6134;BME280;3098;42.678;23.364;2023-01-26T12:47:11;94658.97;;;1.22;100.00
6134;BME280;3098;42.678;23.364;2023-01-26T12:49:45;94715.47;;;1.43;100.00
6134;BME280;3098;42.678;23.364;2023-01-26T12:52:20;94474.09;;;-0.01;100.00
6134;BME280;3098;42.678;23.364;2023-01-26T12:54:54;94654.38;;;0.97;100.00
6134;BME280;3098;42.678;23.364;2023-01-26T12:57:28;94695.28;;;1.28;100.00
6134;BME280;3098;42.678;23.364;2023-01-26T13:00:04;94684.81;;;1.28;100.00
6134;BME280;3098;42.678;23.364;2023-01-26T13:02:36;94503.03;;;0.03;100.00
6134;BME280;3098;42.678;23.364;2023-01-26T13:05:06;94623.31;;;0.95;100.00
6134;BME280;3098;42.678;23.364;2023-01-26T13:07:37;94679.06;;;1.26;100.00
6134;BME280;3098;42.678;23.364;2023-01-26T13:10:42;94688.22;;;1.24;100.00
6134;BME280;3098;42.678;23.364;2023-01-26T13:13:26;94649.94;;;0.97;100.00
6134;BME280;3098;42.678;23.364;2023-01-26T13:16:30;94608.22;;;0.55;100.00
6134;BME280;3098;42.678;23.364;2023-01-26T13:19:01;94682.34;;;0.96;100.00
6134;BME280;3098;42.678;23.364;2023-01-26T13:21:41;94417.41;;;-0.62;100.00
6134;BME280;3098;42.678;23.364;2023-01-26T13:24:41;94670.31;;;0.95;100.00
6134;BME280;3098;42.678;23.364;2023-01-26T13:27:30;94673.47;;;1.02;100.00
6134;BME280;3098;42.678;23.364;2023-01-26T13:29:59;94457.22;;;-0.35;100.00
6134;BME280;3098;42.678;23.364;2023-01-26T13:32:53;94552.84;;;0.43;100.00
6134;BME280;3098;42.678;23.364;2023-01-26T13:35:30;94551.78;;;0.39;100.00
6134;BME280;3098;42.678;23.364;2023-01-26T13:38:02;94612.97;;;0.69;100.00